createdAt,value
2019-02-14T00:02:28.567Z,2.40
2019-02-14T00:04:57.651Z,2.40
2019-02-14T00:07:26.633Z,2.40
2019-02-14T00:09:55.422Z,2.40
2019-02-14T00:12:24.711Z,2.30
2019-02-14T00:14:53.498Z,2.30
2019-02-14T00:17:22.318Z,2.40
2019-02-14T00:19:51.174Z,2.40
2019-02-14T00:22:20.237Z,2.40
2019-02-14T00:24:49.052Z,2.40
2019-02-14T00:27:17.827Z,2.40
2019-02-14T00:29:46.683Z,2.40
2019-02-14T00:32:15.451Z,2.30
2019-02-14T00:34:44.303Z,2.40
2019-02-14T00:37:13.122Z,2.30
2019-02-14T00:39:42.136Z,2.10
2019-02-14T00:42:10.996Z,2.20
2019-02-14T00:44:39.866Z,2.10
2019-02-14T00:47:08.711Z,2.10
2019-02-14T00:49:37.494Z,2.10
2019-02-14T00:52:06.694Z,2.20
2019-02-14T00:54:35.841Z,2.20
2019-02-14T00:57:04.849Z,2.30
2019-02-14T00:59:34.120Z,2.20
2019-02-14T01:02:03.456Z,2.20
2019-02-14T01:04:32.480Z,2.20
2019-02-14T01:07:01.414Z,2.20
2019-02-14T01:09:30.703Z,2.20
2019-02-14T01:11:59.954Z,2.20
2019-02-14T01:14:28.843Z,2.20
2019-02-14T01:16:57.642Z,2.20
2019-02-14T01:19:26.425Z,2.10
2019-02-14T01:21:55.204Z,2.10
2019-02-14T01:24:24.315Z,2.10
2019-02-14T01:26:53.078Z,2.10
2019-02-14T01:29:21.962Z,2.10
2019-02-14T01:31:51.302Z,2.10
2019-02-14T01:34:20.295Z,2.00
2019-02-14T01:36:49.380Z,1.90
2019-02-14T01:39:18.167Z,1.90
2019-02-14T01:41:47.529Z,1.90
2019-02-14T01:44:16.627Z,1.90
2019-02-14T01:46:45.472Z,1.90
2019-02-14T01:49:14.710Z,1.90
2019-02-14T01:51:43.470Z,1.90
2019-02-14T01:54:12.246Z,1.90
2019-02-14T01:56:41.103Z,1.90
2019-02-14T01:59:10.308Z,1.90
2019-02-14T02:01:39.218Z,1.90
2019-02-14T02:04:08.395Z,1.80
2019-02-14T02:06:37.183Z,1.80
2019-02-14T02:09:07.440Z,1.60
2019-02-14T02:11:36.908Z,1.50
2019-02-14T02:14:05.826Z,1.50
2019-02-14T02:16:34.611Z,1.50
2019-02-14T02:19:04.030Z,1.50
2019-02-14T02:21:33.082Z,1.50
2019-02-14T02:24:02.239Z,1.50
2019-02-14T02:26:31.619Z,1.50
2019-02-14T02:29:00.822Z,1.50
2019-02-14T02:31:29.727Z,1.60
2019-02-14T02:33:58.754Z,1.60
2019-02-14T02:36:27.508Z,1.50
2019-02-14T02:38:56.296Z,1.40
2019-02-14T02:41:25.335Z,1.40
2019-02-14T02:43:54.122Z,1.30
2019-02-14T02:46:22.922Z,1.30
2019-02-14T02:48:51.967Z,1.40
2019-02-14T02:51:20.727Z,1.40
2019-02-14T02:53:49.503Z,1.40
2019-02-14T02:56:18.316Z,1.40
2019-02-14T02:58:47.174Z,1.30
2019-02-14T03:01:16.417Z,1.30
2019-02-14T03:03:45.731Z,1.30
2019-02-14T03:06:14.596Z,1.30
2019-02-14T03:08:43.455Z,1.20
2019-02-14T03:11:12.324Z,1.20
2019-02-14T03:13:41.213Z,1.20
2019-02-14T03:16:10.397Z,1.10
2019-02-14T03:18:39.219Z,1.10
2019-02-14T03:21:08.308Z,1.20
2019-02-14T03:23:37.458Z,1.10
2019-02-14T03:26:06.244Z,1.10
2019-02-14T03:28:35.011Z,1.10
2019-02-14T03:31:03.936Z,1.00
2019-02-14T03:33:32.939Z,1.00
2019-02-14T03:36:01.789Z,1.00
2019-02-14T03:38:30.831Z,1.10
2019-02-14T03:41:00.041Z,1.10
2019-02-14T03:43:29.032Z,1.10
2019-02-14T03:45:58.113Z,1.10
2019-02-14T03:48:26.885Z,1.20
2019-02-14T03:50:56.163Z,1.10
2019-02-14T03:53:25.173Z,1.10
2019-02-14T03:55:54.114Z,1.10
2019-02-14T03:58:23.479Z,1.10
2019-02-14T04:00:52.584Z,1.00
2019-02-14T04:03:21.652Z,1.00
2019-02-14T04:05:50.668Z,1.10
2019-02-14T04:08:19.533Z,1.10
2019-02-14T04:10:48.834Z,1.10
2019-02-14T04:13:17.873Z,1.10
2019-02-14T04:15:47.383Z,1.10
2019-02-14T04:18:16.461Z,1.10
2019-02-14T04:20:45.497Z,1.10
2019-02-14T04:23:14.709Z,1.10
2019-02-14T04:25:43.593Z,1.10
2019-02-14T04:28:12.686Z,1.10
2019-02-14T04:30:41.473Z,1.10
2019-02-14T04:33:10.289Z,1.10
2019-02-14T04:35:39.065Z,1.10
2019-02-14T04:38:07.860Z,1.10
2019-02-14T04:40:36.875Z,1.10
2019-02-14T04:43:05.923Z,1.10
2019-02-14T04:45:35.296Z,1.10
2019-02-14T04:48:04.336Z,1.10
2019-02-14T04:50:39.072Z,1.10
2019-02-14T04:53:08.370Z,1.10
2019-02-14T04:55:39.060Z,1.10
2019-02-14T04:58:08.008Z,1.00
2019-02-14T05:00:36.893Z,1.00
2019-02-14T05:03:05.829Z,1.00
2019-02-14T05:05:34.840Z,0.90
2019-02-14T05:08:03.669Z,1.00
2019-02-14T05:10:32.537Z,1.00
2019-02-14T05:13:01.832Z,0.90
2019-02-14T05:15:31.202Z,0.90
2019-02-14T05:18:00.205Z,0.80
2019-02-14T05:20:29.323Z,0.80
2019-02-14T05:22:58.155Z,0.70
2019-02-14T05:25:27.205Z,0.70
2019-02-14T05:27:56.458Z,0.70
2019-02-14T05:30:25.383Z,0.70
2019-02-14T05:32:54.239Z,0.70
2019-02-14T05:35:23.392Z,0.70
2019-02-14T05:37:52.267Z,0.70
2019-02-14T05:40:21.108Z,0.60
2019-02-14T05:42:50.188Z,0.60
2019-02-14T05:45:18.951Z,0.60
2019-02-14T05:47:48.253Z,0.60
2019-02-14T05:50:17.011Z,0.50
2019-02-14T05:52:45.794Z,0.50
2019-02-14T05:55:14.962Z,0.50
2019-02-14T05:57:44.207Z,0.50
2019-02-14T06:00:13.617Z,0.40
2019-02-14T06:02:43.017Z,0.50
2019-02-14T06:05:12.024Z,0.50
2019-02-14T06:07:41.055Z,0.50
2019-02-14T06:10:10.014Z,0.50
2019-02-14T06:12:38.780Z,0.50
2019-02-14T06:15:08.131Z,0.50
2019-02-14T06:17:36.945Z,0.50
2019-02-14T06:20:06.283Z,0.50
2019-02-14T06:22:35.163Z,0.40
2019-02-14T06:25:04.474Z,0.40
2019-02-14T06:27:33.296Z,0.40
2019-02-14T06:30:02.368Z,0.40
2019-02-14T06:32:32.116Z,0.40
2019-02-14T06:35:00.941Z,0.40
2019-02-14T06:37:29.827Z,0.40
2019-02-14T06:39:58.882Z,0.40
2019-02-14T06:42:27.940Z,0.40
2019-02-14T06:44:56.719Z,0.50
2019-02-14T06:47:25.800Z,0.50
2019-02-14T06:49:54.899Z,0.60
2019-02-14T06:52:23.988Z,0.60
2019-02-14T06:54:53.557Z,0.60
2019-02-14T06:57:22.299Z,0.60
2019-02-14T06:59:51.399Z,0.50
2019-02-14T07:02:20.240Z,0.60
2019-02-14T07:04:49.227Z,0.60
2019-02-14T07:07:19.097Z,0.60
2019-02-14T07:09:48.247Z,0.70
2019-02-14T07:12:17.024Z,0.70
2019-02-14T07:14:46.151Z,0.80
2019-02-14T07:17:14.968Z,0.80
2019-02-14T07:19:43.811Z,0.80
2019-02-14T07:22:12.845Z,0.80
2019-02-14T07:24:41.640Z,0.80
2019-02-14T07:27:39.500Z,0.80
2019-02-14T07:30:12.147Z,0.80
2019-02-14T07:32:41.160Z,0.90
2019-02-14T07:35:10.370Z,0.90
2019-02-14T07:37:39.147Z,0.90
2019-02-14T07:40:09.882Z,0.90
2019-02-14T07:42:38.701Z,0.80
2019-02-14T07:45:09.282Z,0.90
2019-02-14T07:47:38.059Z,0.80
2019-02-14T07:50:07.655Z,0.90
2019-02-14T07:52:36.711Z,0.90
2019-02-14T07:55:06.314Z,1.00
2019-02-14T07:57:35.478Z,0.90
2019-02-14T08:00:05.044Z,0.90
2019-02-14T08:02:33.821Z,1.00
2019-02-14T08:05:02.824Z,1.00
2019-02-14T08:07:35.850Z,0.90
2019-02-14T08:10:02.831Z,1.00
2019-02-14T08:12:31.769Z,1.00
2019-02-14T08:15:00.900Z,1.10
2019-02-14T08:17:29.694Z,1.20
2019-02-14T08:19:58.556Z,1.20
2019-02-14T08:22:27.360Z,1.30
2019-02-14T08:24:56.727Z,1.30
2019-02-14T08:27:26.021Z,1.40
2019-02-14T08:29:54.845Z,1.40
2019-02-14T08:32:23.637Z,1.50
2019-02-14T08:35:02.523Z,1.50
2019-02-14T08:37:45.622Z,1.50
2019-02-14T08:40:16.249Z,1.50
2019-02-14T08:42:45.261Z,1.50
2019-02-14T08:45:14.667Z,1.60
2019-02-14T08:47:43.531Z,1.60
2019-02-14T08:50:12.566Z,1.60
2019-02-14T08:52:41.418Z,1.70
2019-02-14T08:55:10.499Z,1.70
2019-02-14T08:57:39.372Z,1.80
2019-02-14T09:00:10.072Z,1.80
2019-02-14T09:02:38.872Z,2.00
2019-02-14T09:05:07.859Z,2.10
2019-02-14T09:07:36.703Z,2.20
2019-02-14T09:10:07.036Z,2.30
2019-02-14T09:12:36.418Z,2.40
2019-02-14T09:15:05.672Z,2.40
2019-02-14T09:17:34.732Z,2.50
2019-02-14T09:20:03.587Z,2.50
2019-02-14T09:22:32.416Z,2.60
2019-02-14T09:25:01.497Z,2.70
2019-02-14T09:27:30.283Z,2.70
2019-02-14T09:29:59.054Z,2.80
2019-02-14T09:32:27.933Z,2.90
2019-02-14T09:34:56.953Z,3.00
2019-02-14T09:37:26.035Z,3.10
2019-02-14T09:39:55.286Z,3.20
2019-02-14T09:42:24.264Z,3.20
2019-02-14T09:44:53.131Z,3.30
2019-02-14T09:47:21.902Z,3.40
2019-02-14T09:49:50.948Z,3.50
2019-02-14T09:52:20.000Z,3.60
2019-02-14T09:54:49.027Z,3.70
2019-02-14T09:57:18.064Z,3.80
2019-02-14T09:59:47.115Z,3.90
2019-02-14T10:02:16.459Z,3.90
2019-02-14T10:04:45.214Z,4.00
2019-02-14T10:07:14.044Z,4.10
2019-02-14T10:09:42.841Z,4.20
2019-02-14T10:12:11.612Z,4.30
2019-02-14T10:14:40.972Z,4.40
2019-02-14T10:17:09.751Z,4.50
2019-02-14T10:19:38.762Z,4.60
2019-02-14T10:22:07.635Z,4.70
2019-02-14T10:24:36.423Z,4.80
2019-02-14T10:27:05.754Z,4.80
2019-02-14T10:29:34.519Z,4.90
2019-02-14T10:32:03.778Z,5.00
2019-02-14T10:34:33.116Z,5.10
2019-02-14T10:37:02.120Z,5.20
2019-02-14T10:39:30.924Z,5.30
2019-02-14T10:41:59.966Z,5.40
2019-02-14T10:44:28.727Z,5.50
2019-02-14T10:46:57.517Z,5.60
2019-02-14T10:49:26.800Z,5.70
2019-02-14T10:51:55.838Z,5.80
2019-02-14T10:54:24.620Z,5.90
2019-02-14T10:56:53.425Z,6.00
2019-02-14T10:59:22.205Z,6.00
2019-02-14T11:01:51.080Z,6.10
2019-02-14T11:04:20.142Z,6.20
2019-02-14T11:06:49.290Z,6.30
2019-02-14T11:09:18.385Z,6.30
2019-02-14T11:11:47.204Z,6.40
2019-02-14T11:14:18.159Z,6.50
2019-02-14T11:16:47.034Z,6.60
2019-02-14T11:19:16.131Z,6.60
2019-02-14T11:21:44.987Z,6.70
2019-02-14T11:24:14.048Z,6.80
2019-02-14T11:26:43.010Z,6.90
2019-02-14T11:29:12.109Z,7.00
2019-02-14T11:31:41.136Z,7.10
2019-02-14T11:34:10.472Z,7.20
2019-02-14T11:36:39.560Z,7.30
2019-02-14T11:39:10.453Z,7.50
2019-02-14T11:41:39.257Z,7.50
2019-02-14T11:44:08.287Z,7.60
2019-02-14T11:46:37.344Z,7.60
2019-02-14T11:49:06.247Z,7.80
2019-02-14T11:51:35.714Z,7.90
2019-02-14T11:54:05.211Z,7.90
2019-02-14T11:56:34.119Z,8.10
2019-02-14T11:59:02.971Z,8.20
2019-02-14T12:01:31.830Z,8.30
2019-02-14T12:04:00.870Z,8.40
2019-02-14T12:06:29.719Z,8.70
2019-02-14T12:09:00.332Z,8.90
2019-02-14T12:11:29.772Z,9.20
2019-02-14T12:13:59.053Z,9.40
2019-02-14T12:16:28.221Z,9.40
2019-02-14T12:18:57.547Z,9.50
2019-02-14T12:21:27.119Z,9.40
2019-02-14T12:23:56.023Z,9.50
2019-02-14T12:26:25.089Z,9.50
2019-02-14T12:28:54.323Z,9.40
2019-02-14T12:31:23.110Z,9.50
2019-02-14T12:33:52.200Z,9.50
2019-02-14T12:36:24.218Z,9.50
2019-02-14T12:38:53.751Z,9.50
2019-02-14T12:41:23.533Z,9.50
2019-02-14T12:43:55.635Z,9.20
2019-02-14T12:46:24.648Z,9.50
2019-02-14T12:48:53.518Z,9.80
2019-02-14T12:51:22.611Z,9.70
2019-02-14T12:53:52.035Z,9.80
2019-02-14T12:56:21.385Z,9.70
2019-02-14T12:58:50.747Z,9.70
2019-02-14T13:01:21.858Z,9.80
2019-02-14T13:03:50.920Z,9.90
2019-02-14T13:06:20.031Z,9.80
2019-02-14T13:08:49.257Z,9.90
2019-02-14T13:11:18.328Z,9.80
2019-02-14T13:13:50.232Z,9.80
2019-02-14T13:16:18.055Z,9.70
2019-02-14T13:18:47.283Z,9.60
2019-02-14T13:21:16.415Z,9.60
2019-02-14T13:23:45.370Z,9.60
2019-02-14T13:26:14.606Z,9.60
2019-02-14T13:28:43.667Z,9.70
2019-02-14T13:31:12.474Z,9.60
2019-02-14T13:33:41.559Z,9.70
2019-02-14T13:36:10.955Z,9.80
2019-02-14T13:38:40.086Z,9.70
2019-02-14T13:41:09.178Z,9.70
2019-02-14T13:43:37.997Z,9.70
2019-02-14T13:46:07.310Z,9.70
2019-02-14T13:48:36.537Z,9.70
2019-02-14T13:51:05.480Z,9.80
2019-02-14T13:53:34.603Z,9.80
2019-02-14T13:56:04.041Z,9.80
2019-02-14T13:58:33.293Z,9.80
2019-02-14T14:01:03.459Z,9.80
2019-02-14T14:03:33.443Z,9.80
2019-02-14T14:06:03.286Z,9.80
2019-02-14T14:08:32.423Z,9.70
2019-02-14T14:11:01.439Z,9.70
2019-02-14T14:13:30.512Z,9.70
2019-02-14T14:15:59.467Z,9.80
2019-02-14T14:18:28.568Z,9.80
2019-02-14T14:20:57.742Z,9.80
2019-02-14T14:23:27.359Z,9.90
2019-02-14T14:25:56.515Z,9.90
2019-02-14T14:28:26.074Z,9.90
2019-02-14T14:30:55.514Z,10.00
2019-02-14T14:33:24.475Z,10.10
2019-02-14T14:35:53.746Z,10.10
2019-02-14T14:38:23.464Z,10.20
2019-02-14T14:40:52.413Z,10.20
2019-02-14T14:43:39.113Z,10.20
2019-02-14T14:46:23.779Z,10.20
2019-02-14T14:48:52.679Z,10.20
2019-02-14T14:51:21.812Z,10.20
2019-02-14T14:53:51.308Z,10.20
2019-02-14T14:56:20.488Z,10.20
2019-02-14T14:58:50.160Z,10.20
2019-02-14T15:01:19.291Z,10.20
2019-02-14T15:03:48.349Z,10.20
2019-02-14T15:06:17.478Z,10.40
2019-02-14T15:08:47.051Z,10.80
2019-02-14T15:11:16.188Z,11.20
2019-02-14T15:13:45.429Z,11.60
2019-02-14T15:16:14.745Z,12.00
2019-02-14T15:18:43.839Z,12.20
2019-02-14T15:21:13.044Z,12.30
2019-02-14T15:23:41.943Z,12.80
2019-02-14T15:26:11.007Z,13.30
2019-02-14T15:28:39.801Z,13.10
2019-02-14T15:31:08.919Z,12.80
2019-02-14T15:33:37.867Z,12.40
2019-02-14T15:36:06.992Z,12.70
2019-02-14T15:38:37.063Z,12.10
2019-02-14T15:41:06.118Z,12.00
2019-02-14T15:43:34.982Z,11.90
2019-02-14T15:46:04.093Z,11.70
2019-02-14T15:48:33.355Z,11.70
2019-02-14T15:51:02.500Z,11.70
2019-02-14T15:53:31.339Z,11.50
2019-02-14T15:56:00.150Z,11.30
2019-02-14T15:58:30.708Z,11.10
2019-02-14T16:01:00.069Z,10.90
2019-02-14T16:03:29.429Z,10.80
2019-02-14T16:05:58.578Z,10.70
2019-02-14T16:08:27.391Z,10.50
2019-02-14T16:10:56.300Z,10.40
2019-02-14T16:13:25.187Z,10.20
2019-02-14T16:15:56.018Z,10.10
2019-02-14T16:18:25.299Z,10.00
2019-02-14T16:20:54.515Z,9.90
2019-02-14T16:23:23.554Z,9.80
2019-02-14T16:25:54.031Z,9.80
2019-02-14T16:28:23.055Z,9.70
2019-02-14T16:30:52.971Z,9.60
2019-02-14T16:33:23.617Z,9.60
2019-02-14T16:35:52.604Z,9.50
2019-02-14T16:38:21.720Z,9.40
2019-02-14T16:40:50.613Z,9.40
2019-02-14T16:43:19.649Z,9.30
2019-02-14T16:45:48.427Z,9.20
2019-02-14T16:48:17.231Z,9.10
2019-02-14T16:50:46.120Z,9.00
2019-02-14T16:53:14.902Z,9.00
2019-02-14T16:55:43.759Z,8.90
2019-02-14T16:58:12.606Z,8.80
2019-02-14T17:00:41.791Z,8.70
2019-02-14T17:03:11.802Z,8.70
2019-02-14T17:05:40.815Z,8.60
2019-02-14T17:08:09.666Z,8.50
2019-02-14T17:10:38.727Z,8.40
2019-02-14T17:13:07.842Z,8.30
2019-02-14T17:15:37.067Z,8.30
2019-02-14T17:18:06.271Z,8.20
2019-02-14T17:20:35.056Z,8.20
2019-02-14T17:23:04.195Z,8.10
2019-02-14T17:25:33.408Z,8.10
2019-02-14T17:28:02.584Z,8.00
2019-02-14T17:30:31.733Z,8.00
2019-02-14T17:33:00.761Z,7.90
2019-02-14T17:35:29.920Z,7.90
2019-02-14T17:37:58.787Z,7.90
2019-02-14T17:40:27.681Z,7.90
2019-02-14T17:42:56.621Z,7.90
2019-02-14T17:45:25.582Z,7.80
2019-02-14T17:47:54.649Z,7.80
2019-02-14T17:50:23.426Z,7.70
2019-02-14T17:52:52.226Z,7.70
2019-02-14T17:55:21.092Z,7.70
2019-02-14T17:57:49.949Z,7.70
2019-02-14T18:00:18.908Z,7.70
2019-02-14T18:02:47.984Z,7.70
2019-02-14T18:05:16.893Z,7.70
2019-02-14T18:07:46.000Z,7.70
2019-02-14T18:10:15.173Z,7.70
2019-02-14T18:12:44.299Z,7.70
2019-02-14T18:15:13.366Z,7.60
2019-02-14T18:17:42.322Z,7.60
2019-02-14T18:20:11.388Z,7.60
2019-02-14T18:22:40.498Z,7.50
2019-02-14T18:25:10.184Z,7.50
2019-02-14T18:27:39.143Z,7.50
2019-02-14T18:30:09.014Z,7.40
2019-02-14T18:32:38.460Z,7.40
2019-02-14T18:35:07.832Z,7.40
2019-02-14T18:37:37.255Z,7.30
2019-02-14T18:40:07.271Z,7.30
2019-02-14T18:42:36.419Z,7.20
2019-02-14T18:45:06.455Z,7.20
2019-02-14T18:47:39.764Z,7.10
2019-02-14T18:50:06.221Z,7.10
2019-02-14T18:52:35.320Z,7.00
2019-02-14T18:55:04.639Z,7.00
2019-02-14T18:57:33.825Z,6.90
2019-02-14T19:00:02.726Z,6.90
2019-02-14T19:02:31.531Z,7.00
2019-02-14T19:05:01.420Z,7.00
2019-02-14T19:07:31.584Z,6.90
2019-02-14T19:10:00.850Z,6.90
2019-02-14T19:12:29.721Z,6.90
2019-02-14T19:14:58.775Z,6.80
2019-02-14T19:17:27.654Z,6.70
2019-02-14T19:19:56.992Z,6.70
2019-02-14T19:22:26.320Z,6.70
2019-02-14T19:24:55.627Z,6.70
2019-02-14T19:27:24.638Z,6.60
2019-02-14T19:29:53.791Z,6.60
2019-02-14T19:32:22.904Z,6.60
2019-02-14T19:34:52.529Z,6.50
2019-02-14T19:37:21.412Z,6.50
2019-02-14T19:39:50.295Z,6.50
2019-02-14T19:42:19.203Z,6.40
2019-02-14T19:44:48.296Z,6.40
2019-02-14T19:47:17.527Z,6.40
2019-02-14T19:49:46.671Z,6.30
2019-02-14T19:52:15.981Z,6.30
2019-02-14T19:54:44.989Z,6.30
2019-02-14T19:57:14.308Z,6.30
2019-02-14T19:59:43.075Z,6.20
2019-02-14T20:02:11.943Z,6.10
2019-02-14T20:04:40.815Z,6.10
2019-02-14T20:07:10.041Z,6.10
2019-02-14T20:09:41.434Z,6.00
2019-02-14T20:12:09.636Z,5.90
2019-02-14T20:14:38.738Z,5.90
2019-02-14T20:17:08.038Z,5.90
2019-02-14T20:19:37.132Z,5.90
2019-02-14T20:22:06.056Z,5.80
2019-02-14T20:24:35.123Z,5.80
2019-02-14T20:27:04.295Z,5.70
2019-02-14T20:29:33.246Z,5.60
2019-02-14T20:32:02.087Z,5.60
2019-02-14T20:34:30.955Z,5.50
2019-02-14T20:36:59.802Z,5.50
2019-02-14T20:39:29.098Z,5.60
2019-02-14T20:41:57.996Z,5.50
2019-02-14T20:44:27.282Z,5.50
2019-02-14T20:46:56.396Z,5.50
2019-02-14T20:49:25.616Z,5.40
2019-02-14T20:51:54.743Z,5.40
2019-02-14T20:54:23.815Z,5.30
2019-02-14T20:56:52.696Z,5.30
2019-02-14T20:59:21.568Z,5.20
2019-02-14T21:01:50.475Z,5.20
2019-02-14T21:04:19.275Z,5.20
2019-02-14T21:06:48.393Z,5.20
2019-02-14T21:09:17.627Z,5.30
2019-02-14T21:11:54.411Z,5.40
2019-02-14T21:14:17.250Z,5.30
2019-02-14T21:16:46.368Z,5.40
2019-02-14T21:19:15.197Z,5.40
2019-02-14T21:21:44.084Z,5.30
2019-02-14T21:24:12.991Z,5.30
2019-02-14T21:26:41.980Z,5.40
2019-02-14T21:29:11.260Z,5.30
2019-02-14T21:31:40.149Z,5.30
2019-02-14T21:34:09.030Z,5.30
2019-02-14T21:36:38.118Z,5.30
2019-02-14T21:39:07.345Z,5.30
2019-02-14T21:41:36.454Z,5.40
2019-02-14T21:44:05.422Z,5.40
2019-02-14T21:46:34.449Z,5.30
2019-02-14T21:49:03.253Z,5.30
2019-02-14T21:51:32.087Z,5.20
2019-02-14T21:54:01.171Z,5.20
2019-02-14T21:56:30.553Z,5.30
2019-02-14T21:58:59.519Z,5.20
2019-02-14T22:01:28.962Z,5.10
2019-02-14T22:03:57.874Z,5.20
2019-02-14T22:06:27.084Z,5.20
2019-02-14T22:08:56.016Z,5.20
2019-02-14T22:11:24.885Z,5.20
2019-02-14T22:13:53.695Z,5.20
2019-02-14T22:16:22.492Z,5.20
2019-02-14T22:18:51.848Z,5.20
2019-02-14T22:21:20.643Z,5.20
2019-02-14T22:23:49.541Z,5.20
2019-02-14T22:26:18.742Z,5.20
2019-02-14T22:28:48.040Z,5.20
2019-02-14T22:31:17.168Z,5.10
2019-02-14T22:33:45.987Z,5.10
2019-02-14T22:36:15.172Z,5.10
2019-02-14T22:38:44.823Z,5.00
2019-02-14T22:41:13.874Z,4.90
2019-02-14T22:43:42.719Z,4.90
2019-02-14T22:46:11.595Z,4.80
2019-02-14T22:48:40.511Z,4.70
2019-02-14T22:51:10.236Z,4.60
2019-02-14T22:53:39.065Z,4.50
2019-02-14T22:56:07.861Z,4.40
2019-02-14T22:58:36.745Z,4.40
2019-02-14T23:01:06.215Z,4.40
2019-02-14T23:03:35.141Z,4.40
2019-02-14T23:06:04.088Z,4.40
2019-02-14T23:08:33.100Z,4.40
2019-02-14T23:11:02.502Z,4.30
2019-02-14T23:13:31.856Z,4.30
2019-02-14T23:16:00.804Z,4.20
2019-02-14T23:18:29.834Z,4.10
2019-02-14T23:20:58.718Z,4.00
2019-02-14T23:23:27.847Z,3.90
2019-02-14T23:25:56.855Z,3.90
2019-02-14T23:28:25.741Z,3.80
2019-02-14T23:30:54.933Z,3.80
2019-02-14T23:33:23.815Z,3.70
2019-02-14T23:35:52.912Z,3.70
2019-02-14T23:38:22.055Z,3.60
2019-02-14T23:40:50.967Z,3.60
2019-02-14T23:43:20.378Z,3.60
2019-02-14T23:45:49.251Z,3.50
2019-02-14T23:48:18.169Z,3.40
2019-02-14T23:50:47.215Z,3.40
2019-02-14T23:53:16.039Z,3.30
2019-02-14T23:55:45.388Z,3.30
2019-02-14T23:58:14.446Z,3.30
